createdAt,value
2023-01-27T00:04:31.344Z,0.73
2023-01-27T00:09:53.109Z,0.76
2023-01-27T00:15:16.728Z,0.59
2023-01-27T00:20:57.029Z,0.41
2023-01-27T00:26:19.973Z,0.60
2023-01-27T00:32:00.200Z,0.39
2023-01-27T00:37:21.964Z,0.58
2023-01-27T00:42:44.095Z,0.38
2023-01-27T00:48:05.885Z,0.47
2023-01-27T00:53:27.636Z,0.49
2023-01-27T00:58:49.385Z,0.51
2023-01-27T01:04:11.212Z,0.62
2023-01-27T01:09:32.989Z,0.44
2023-01-27T01:14:54.746Z,0.27
2023-01-27T01:20:16.644Z,0.32
2023-01-27T01:25:38.573Z,0.60
2023-01-27T01:31:08.487Z,0.22
2023-01-27T01:36:30.383Z,0.51
2023-01-27T01:41:52.140Z,0.49
2023-01-27T01:47:17.925Z,0.41
2023-01-27T01:52:40.285Z,0.23
2023-01-27T01:58:02.945Z,0.27
2023-01-27T02:03:26.033Z,0.45
2023-01-27T02:08:50.550Z,0.57
2023-01-27T02:14:14.735Z,0.61
2023-01-27T02:20:03.292Z,0.64
2023-01-27T02:25:24.962Z,0.47
2023-01-27T02:30:46.737Z,0.48
2023-01-27T02:36:15.614Z,0.57
2023-01-27T02:41:40.829Z,0.61
2023-01-27T02:47:02.565Z,0.53
2023-01-27T02:52:25.326Z,0.68
2023-01-27T02:57:47.068Z,0.58
2023-01-27T03:03:08.831Z,0.65
2023-01-27T03:08:30.582Z,0.56
2023-01-27T03:13:52.290Z,0.43
2023-01-27T03:19:14.010Z,0.33
2023-01-27T03:24:38.005Z,0.52
2023-01-27T03:30:01.196Z,0.49
2023-01-27T03:35:34.364Z,0.47
2023-01-27T03:41:14.875Z,0.51
2023-01-27T03:46:36.688Z,0.39
2023-01-27T03:51:58.947Z,0.65
2023-01-27T03:57:20.643Z,0.71
2023-01-27T04:03:00.829Z,0.70
2023-01-27T04:08:22.643Z,0.56
2023-01-27T04:13:44.678Z,0.40
2023-01-27T04:19:08.883Z,0.49
2023-01-27T04:24:30.983Z,0.59
2023-01-27T04:29:53.264Z,0.62
2023-01-27T04:35:15.183Z,0.51
2023-01-27T04:40:37.048Z,0.56
2023-01-27T04:45:58.904Z,0.75
2023-01-27T04:51:20.736Z,0.64
2023-01-27T04:56:58.025Z,0.43
2023-01-27T05:02:19.758Z,0.48
2023-01-27T05:07:41.529Z,0.54
2023-01-27T05:13:03.280Z,0.67
2023-01-27T05:18:24.976Z,0.60
2023-01-27T05:23:46.849Z,0.48
2023-01-27T05:29:09.421Z,0.61
2023-01-27T05:34:31.160Z,0.56
2023-01-27T05:39:52.872Z,0.54
2023-01-27T05:45:15.091Z,0.57
2023-01-27T05:50:36.889Z,0.45
2023-01-27T05:55:58.706Z,0.49
2023-01-27T06:01:22.817Z,0.50
2023-01-27T06:06:44.532Z,0.61
2023-01-27T06:12:06.575Z,0.58
2023-01-27T06:17:28.353Z,0.61
2023-01-27T06:22:50.564Z,0.58
2023-01-27T06:28:27.878Z,0.74
2023-01-27T06:33:51.364Z,0.58
2023-01-27T06:39:13.188Z,0.45
2023-01-27T06:44:34.967Z,0.50
2023-01-27T06:49:56.659Z,0.35
2023-01-27T06:55:19.404Z,0.56
2023-01-27T07:00:41.646Z,0.56
2023-01-27T07:06:03.519Z,0.61
2023-01-27T07:11:25.359Z,0.70
2023-01-27T07:16:47.656Z,0.57
2023-01-27T07:22:09.383Z,0.60
2023-01-27T07:27:31.088Z,0.54
2023-01-27T07:32:54.494Z,0.70
2023-01-27T07:38:16.264Z,0.51
2023-01-27T07:43:37.971Z,0.69
2023-01-27T07:48:59.709Z,0.56
2023-01-27T07:54:21.508Z,0.65
2023-01-27T07:59:43.225Z,0.85
2023-01-27T08:05:05.189Z,0.52
2023-01-27T08:10:27.026Z,0.54
2023-01-27T08:15:55.660Z,0.57
2023-01-27T08:21:17.394Z,0.75
2023-01-27T08:26:39.143Z,0.66
2023-01-27T08:32:00.875Z,0.73
2023-01-27T08:37:22.583Z,0.53
2023-01-27T08:42:44.367Z,0.63
2023-01-27T08:48:06.810Z,0.92
2023-01-27T08:53:29.169Z,0.85
2023-01-27T08:58:52.388Z,0.69
2023-01-27T09:04:14.229Z,0.50
2023-01-27T09:09:35.942Z,0.39
2023-01-27T09:14:58.246Z,0.82
2023-01-27T09:20:20.126Z,0.50
2023-01-27T09:25:41.921Z,0.79
2023-01-27T09:31:03.743Z,0.95
2023-01-27T09:36:27.411Z,1.04
2023-01-27T09:42:02.861Z,0.73
2023-01-27T09:47:33.490Z,0.78
2023-01-27T09:53:17.745Z,0.87
2023-01-27T09:59:08.248Z,0.85
2023-01-27T10:04:49.976Z,0.75
2023-01-27T10:10:33.266Z,0.60
2023-01-27T10:16:19.458Z,1.09
2023-01-27T10:22:13.481Z,1.07
2023-01-27T10:27:43.206Z,1.12
2023-01-27T10:33:14.131Z,1.02
2023-01-27T10:38:38.870Z,1.11
2023-01-27T10:44:25.449Z,1.20
2023-01-27T10:49:53.666Z,1.34
2023-01-27T10:55:21.928Z,1.13
2023-01-27T11:06:35.376Z,1.24
2023-01-27T11:12:02.742Z,1.26
2023-01-27T11:17:32.062Z,1.34
2023-01-27T11:23:00.018Z,1.33
2023-01-27T11:28:21.660Z,1.42
2023-01-27T11:34:11.384Z,1.47
2023-01-27T11:39:33.847Z,1.43
2023-01-27T11:44:57.580Z,1.45
2023-01-27T11:50:21.934Z,1.33
2023-01-27T11:55:50.324Z,1.44
2023-01-27T12:01:19.962Z,1.45
2023-01-27T12:06:48.983Z,1.32
2023-01-27T12:12:14.971Z,1.44
2023-01-27T12:17:47.592Z,1.51
2023-01-27T12:23:32.078Z,1.41
2023-01-27T12:28:54.857Z,1.53
2023-01-27T12:34:34.000Z,1.56
2023-01-27T12:40:01.608Z,1.60
2023-01-27T12:45:26.866Z,1.78
2023-01-27T12:50:51.321Z,1.74
2023-01-27T12:56:16.427Z,1.70
2023-01-27T13:01:41.257Z,1.58
2023-01-27T13:07:02.951Z,1.52
2023-01-27T13:12:30.801Z,1.46
2023-01-27T13:17:54.932Z,1.64
2023-01-27T13:23:31.325Z,1.51
2023-01-27T13:29:15.484Z,1.48
2023-01-27T13:34:53.040Z,1.58
2023-01-27T13:40:22.518Z,1.58
2023-01-27T13:45:57.475Z,1.54
2023-01-27T13:51:25.255Z,1.53
2023-01-27T13:57:07.711Z,1.56
2023-01-27T14:03:07.547Z,1.38
2023-01-27T14:08:49.459Z,1.52
2023-01-27T14:14:37.296Z,1.46
2023-01-27T14:20:18.166Z,1.59
2023-01-27T14:26:01.592Z,1.42
2023-01-27T14:31:47.507Z,1.42
2023-01-27T14:37:34.203Z,1.44
2023-01-27T14:42:55.852Z,1.44
2023-01-27T14:48:23.666Z,1.44
2023-01-27T14:54:13.673Z,1.41
2023-01-27T14:59:44.299Z,1.39
2023-01-27T15:05:27.514Z,1.52
2023-01-27T15:11:25.293Z,1.42
2023-01-27T15:17:05.678Z,1.57
2023-01-27T15:22:51.982Z,1.62
2023-01-27T15:28:17.985Z,1.38
2023-01-27T15:33:53.438Z,1.56
2023-01-27T15:39:20.192Z,1.65
2023-01-27T15:45:01.589Z,1.64
2023-01-27T15:50:27.516Z,1.71
2023-01-27T15:55:53.366Z,1.71
2023-01-27T16:01:32.027Z,1.54
2023-01-27T16:07:02.953Z,1.52
2023-01-27T16:12:26.931Z,1.51
2023-01-27T16:18:06.888Z,1.36
2023-01-27T16:23:44.701Z,1.54
2023-01-27T16:29:29.558Z,1.64
2023-01-27T16:35:02.060Z,1.73
2023-01-27T16:40:24.491Z,1.72
2023-01-27T16:45:51.925Z,1.88
2023-01-27T16:51:18.639Z,1.80
2023-01-27T16:56:40.721Z,1.78
2023-01-27T17:02:19.642Z,1.71
2023-01-27T17:07:41.475Z,1.78
2023-01-27T17:13:03.275Z,1.67
2023-01-27T17:18:25.881Z,1.81
2023-01-27T17:23:49.330Z,1.72
2023-01-27T17:29:20.978Z,1.86
2023-01-27T17:34:42.816Z,1.92
2023-01-27T17:40:15.317Z,1.88
2023-01-27T17:45:37.925Z,1.72
2023-01-27T17:50:59.744Z,1.59
2023-01-27T17:56:27.044Z,1.72
2023-01-27T18:01:53.483Z,1.70
2023-01-27T18:07:15.636Z,1.59
2023-01-27T18:12:37.945Z,1.62
2023-01-27T18:18:19.916Z,1.59
2023-01-27T18:23:56.409Z,1.60
2023-01-27T18:29:37.337Z,1.69
2023-01-27T18:34:59.767Z,1.75
2023-01-27T18:40:30.361Z,1.87
2023-01-27T18:45:52.179Z,1.68
2023-01-27T18:51:15.507Z,1.76
2023-01-27T18:56:37.318Z,1.91
2023-01-27T19:02:00.292Z,1.82
2023-01-27T19:07:22.150Z,1.72
2023-01-27T19:12:44.045Z,1.79
2023-01-27T19:18:20.847Z,1.80
2023-01-27T19:23:44.455Z,1.86
2023-01-27T19:29:06.409Z,1.87
2023-01-27T19:34:28.161Z,1.88
2023-01-27T19:39:49.963Z,1.94
2023-01-27T19:45:14.913Z,1.87
2023-01-27T19:50:36.887Z,1.88
2023-01-27T19:55:59.197Z,1.85
2023-01-27T20:01:24.997Z,1.96
2023-01-27T20:06:46.861Z,2.01
2023-01-27T20:12:14.428Z,1.96
2023-01-27T20:17:37.762Z,1.92
2023-01-27T20:22:59.615Z,2.03
2023-01-27T20:28:21.879Z,1.85
2023-01-27T20:33:43.884Z,1.83
2023-01-27T20:39:05.682Z,1.79
2023-01-27T20:44:27.537Z,1.98
2023-01-27T20:49:50.409Z,2.05
2023-01-27T20:55:13.727Z,2.14
2023-01-27T21:00:35.622Z,1.96
2023-01-27T21:05:57.371Z,1.94
2023-01-27T21:11:21.246Z,1.94
2023-01-27T21:16:43.078Z,2.05
2023-01-27T21:22:04.869Z,2.02
2023-01-27T21:27:27.132Z,1.92
2023-01-27T21:32:49.007Z,1.92
2023-01-27T21:38:10.886Z,2.08
2023-01-27T21:43:55.987Z,2.03
2023-01-27T21:49:17.743Z,1.97
2023-01-27T21:54:39.671Z,2.05
2023-01-27T22:00:01.676Z,2.02
2023-01-27T22:05:24.630Z,2.00
2023-01-27T22:10:46.375Z,2.00
2023-01-27T22:16:13.922Z,2.03
2023-01-27T22:21:35.646Z,1.96
2023-01-27T22:26:57.381Z,2.04
2023-01-27T22:32:19.149Z,2.10
2023-01-27T22:37:41.999Z,2.01
2023-01-27T22:43:09.232Z,2.04
2023-01-27T22:48:31.066Z,2.17
2023-01-27T22:53:52.776Z,2.08
2023-01-27T22:59:14.677Z,2.18
2023-01-27T23:04:36.408Z,2.07
2023-01-27T23:09:58.209Z,2.21
2023-01-27T23:15:19.907Z,2.20
2023-01-27T23:20:42.411Z,2.19
2023-01-27T23:26:08.759Z,2.03
2023-01-27T23:31:30.605Z,1.92
2023-01-27T23:36:52.395Z,1.96
2023-01-27T23:42:15.353Z,2.00
2023-01-27T23:47:37.146Z,2.02
2023-01-27T23:52:58.892Z,1.87
2023-01-27T23:58:20.879Z,1.92
